Terminal Aerodrome Forecast
Issued by NWS Grand Forks, ND

Home | Current Version | Previous Version | Text Only | Print | Product List | Glossary Off
Versions: 1 2 3 4 5 6 7 8 9 10 11 12 13

176
FTUS43 KFGF 170520
TAFFAR
TAF
KFAR 170520Z 1706/1806 VRB05KT P6SM FEW250
     FM171600 20009KT P6SM FEW250
     FM171900 20013G18KT P6SM SKC
     FM180000 19009KT P6SM SKC WS020/24040KT=

USA.gov is the U.S. government's official web portal to all federal, state and local government web resources and services.